Nearby METAR Reports

 

K9MN - St Mary Hospital, Minnesota, USA
Distance from station: SW 3mi, 4km
Updated: 12/31/1969 6:00pm
NOT Current
unable to load K9MN data RC=
unable to load K9MN data RC=
 
KRST - Rochester, Minnesota, USA
Distance from station: SSW 10mi, 16km
Updated: 02/19/2018 9:14am
Light snow, Mist, Overcast
Light snow, Mist, Overcast
 Wind from NNE
Wind: NNE 15 mph , 24 km/h
Temperature: 28°F , -2°C
Wind Chill: 16°F , -9°C
Dew Point: 28°F , -2°C
Humidity: 100%
Barometer: 29.78 inHg , 1008.5 hPa
Summary: Light snow, Mist
Clouds: Overcast
Visibility: 1 3/4 miles , 2.8 km
Cloud details: Overcast 600 ft
2018/02/19 15:14 KRST 191514Z 02013KT 1 3/4SM -SN BR OVC006 M02/M02 A2978 RMK AO2 TWR VIS 2 1/2 FZRAE13SNB13 P0001 I1003 T10171022
 
KTOB - Dodge Center, Minnesota, USA
Distance from station: W 19mi, 30km
Updated: 02/19/2018 9:15am
Overcast
Overcast
 Wind from NNE
Wind: NNE 17 mph , 28 km/h, Gust: 21 mph , 33 km/h
Temperature: 27°F , -3°C
Wind Chill: 14°F , -10°C
Dew Point: 25°F , -4°C
Humidity: 93%
Barometer: 29.79 inHg , 1008.8 hPa
Clouds: Overcast
Visibility: 2 1/2 miles , 4 km
Cloud details: Overcast 600 ft
2018/02/19 15:15 KTOB 191515Z AUTO 02015G18KT 2 1/2SM UP OVC006 M03/M04 A2979 RMK AO2
KFKA - Preston, Minnesota, USA
Distance from station: SSE 28mi, 45km
Updated: 02/19/2018 9:15am
Mist, Overcast
Mist, Overcast
 Wind from NNE
Wind: NNE 10 mph , 17 km/h
Temperature: 30°F , -1°C
Wind Chill: 21°F , -6°C
Dew Point: 28°F , -2°C
Humidity: 93%
Barometer: 29.77 inHg , 1008.1 hPa
Summary: Mist
Clouds: Overcast
Visibility: 2 1/2 miles , 4 km
Cloud details: Partly cloudy 400 ft
Overcast 2600 ft
2018/02/19 15:15 KFKA 191515Z AUTO 02009KT 2 1/2SM BR SCT004 OVC026 M01/M02 A2977 RMK AO2 T10081018
 
KAUM - Austin Muni, Minnesota, USA
Distance from station: SW 35mi, 57km
Updated: 02/19/2018 9:15am
Overcast
Overcast
 Wind from NNE
Wind: NNE 13 mph , 20 km/h, Gust: 22 mph , 35 km/h
Temperature: 28°F , -2°C
Wind Chill: 17°F , -8°C
Dew Point: 25°F , -4°C
Humidity: 86%
Barometer: 29.76 inHg , 1007.8 hPa
Clouds: Overcast
Visibility: 4 miles , 6 km
Cloud details: Overcast 700 ft
2018/02/19 15:15 KAUM 191515Z AUTO 03011G19KT 4SM UP OVC007 M02/M04 A2976 RMK AO2
KONA - Winona Muni, Minnesota, USA
Distance from station: E 37mi, 59km
Updated: 02/19/2018 9:15am
Overcast
Overcast
 Wind from NNE
Wind: NNE 3 mph , 6 km/h
Temperature: 34°F , 1°C
Dew Point: 30°F , -1°C
Humidity: 87%
Barometer: 29.82 inHg , 1009.8 hPa
Clouds: Overcast
Visibility: 10 miles , 16 km
Cloud details: Mostly cloudy 4100 ft
Overcast 4600 ft
2018/02/19 15:15 KONA 191515Z AUTO 03003KT 10SM BKN041 OVC046 01/M01 A2982 RMK AO2
 
KRGK - Red Wing, Minnesota, USA
Distance from station: N 38mi, 61km
Updated: 02/19/2018 9:15am
Overcast
Overcast
 Wind from NE
Wind: NE 10 mph , 17 km/h, Gust: 17 mph , 28 km/h
Temperature: 27°F , -3°C
Wind Chill: 18°F , -8°C
Dew Point: 19°F , -7°C
Humidity: 74%
Barometer: 29.87 inHg , 1011.5 hPa
Clouds: Overcast
Visibility: 5 miles , 8 km
Cloud details: Mostly cloudy 1700 ft
Mostly cloudy 2100 ft
Overcast 3200 ft
2018/02/19 15:15 KRGK 191515Z AUTO 04009G15KT 5SM UP BKN017 BKN021 OVC032 M03/M07 A2987 RMK AO2
KOWA - Owatonna, Minnesota, USA
Distance from station: W 41mi, 65km
Updated: 02/19/2018 9:13am
Overcast
Overcast
 Wind from NNE
Wind: NNE 13 mph , 20 km/h, Gust: 17 mph , 28 km/h
Temperature: 25°F , -4°C
Wind Chill: 13°F , -11°C
Dew Point: 21°F , -6°C
Humidity: 86%
Barometer: 29.82 inHg , 1009.8 hPa
Clouds: Overcast
Visibility: 3 miles , 5 km
Cloud details: Overcast 700 ft
2018/02/19 15:13 KOWA 191513Z AUTO 02011G15KT 3SM UP OVC007 M04/M06 A2982 RMK AO2
 
KSYN - Stanton, Minnesota, USA
Distance from station: NW 42mi, 68km
Updated: 02/19/2018 9:15am
Overcast
Overcast
 Wind from NNE
Wind: NNE 15 mph , 24 km/h
Temperature: 25°F , -4°C
Wind Chill: 13°F , -11°C
Dew Point: 23°F , -5°C
Humidity: 93%
Barometer: 29.85 inHg , 1010.8 hPa
Clouds: Overcast
Visibility: 3 miles , 5 km
Cloud details: Overcast 1000 ft
2018/02/19 15:15 KSYN 191515Z AUTO 03013KT 3SM UP OVC010 M04/M05 A2985 RMK AO2 T10361054
KFBL - Faribault Muni, Minnesota, USA
Distance from station: WNW 48mi, 77km
Updated: 02/19/2018 9:15am
Overcast
Overcast
 Wind from N
Wind: N 15 mph , 24 km/h, Gust: 20 mph , 31 km/h
Temperature: 21°F , -6°C
Wind Chill: 7°F , -14°C
Dew Point: 19°F , -7°C
Humidity: 93%
Barometer: 29.85 inHg , 1010.8 hPa
Clouds: Overcast
Visibility: 4 miles , 6 km
Cloud details: Overcast 800 ft
2018/02/19 15:15 KFBL 191515Z AUTO 01013G17KT 4SM UP OVC008 M06/M07 A2985 RMK AO2